Commerce, Missouri
Current Conditions -  °F | °C
As of 3:53 AM on Monday 22 Dec 2014 (Local Time) from KCGI Reporting Station
Overcast Overcast  
Wind Chill: 39°   Ceiling: 8000
Heat Index: 43°   Visibility: 10mi
Dew Point: 38°   Wind: 7mph
Humidity: 82%   Direction: 130°SE
Pressure: 29.86"   Gusts: NA
Location:  37.16°N, 89.45°W
Report Text: KCGI 220953Z AUTO 13006KT 10SM SCT029 OVC080 06/03 A2986 RMK AO2 SLP111 T00610033 TSNO
Loading
Personal Weather Stations






























Interactive Weather Map New forecast layout! Learn more

10-Day Weather Forecast

Advertisements
Track Severe Weather on mobile